Terminal Aerodrome Forecast
Issued by NWS

Home | Current Version | Previous Version | Text Only | Print | Product List | Glossary On
Versions: 1 2 3 4 5 6 7 8 9 10 11 12 13 14 15 16 17 18 19 20 21
000
FTUS43 KLSX 101700
TAFSUS
TAF
KSUS 101721Z 1018/1118 08005KT P6SM FEW050
     FM110000 VRB02KT P6SM SKC
     FM111600 16006KT P6SM SCT150=

USA.gov is the U.S. government's official web portal to all federal, state and local government web resources and services.